Aviation Digital Data Service (ADDS)

Output produced by METARs form (0653 UTC 22 July 2017)
found at http://aviationweather.gov/adds/metars/
 
KCKB 220529Z 2206/2306 00000KT 1/2SM FG VV002 
     FM221200 00000KT 5SM HZ BKN010 
     FM221400 20004KT P6SM BKN050 
     FM221900 23006KT P6SM -SHRA VCTS BKN050CB